Time;durP1;ratioP1;P1;durP2;ratioP2;P2;SDS_P1;SDS_P2;PMS_P1;PMS_P2;Temp;Humidity;BMP_temperature;BMP_pressure;BME280_temperature;BME280_humidity;BME280_pressure;Samples;Min_cycle;Max_cycle;Signal;HPM_P1;HPM_P2
2022/04/27 00:01:11;;;;;;;13.27;6.45;;;;;;;;;;5046468;28;20029;-74
2022/04/27 00:03:37;;;;;;;11.80;6.68;;;;;;;;;;5043777;28;20075;-74
2022/04/27 00:06:03;;;;;;;11.18;5.80;;;;;;;;;;5051863;28;20056;-74
2022/04/27 00:08:28;;;;;;;10.90;6.07;;;;;;;;;;5033183;28;20143;-74
2022/04/27 00:10:55;;;;;;;11.20;6.47;;;;;;;;;;5033879;28;20032;-74
2022/04/27 00:13:21;;;;;;;13.15;6.85;;;;;;;;;;5066057;28;20106;-74
2022/04/27 00:15:47;;;;;;;10.95;6.93;;;;;;;;;;5052030;28;20032;-73
2022/04/27 00:18:13;;;;;;;12.15;7.40;;;;;;;;;;5049217;28;20368;-74
2022/04/27 00:20:39;;;;;;;12.88;6.40;;;;;;;;;;5051575;28;20111;-73
2022/04/27 00:23:05;;;;;;;10.13;6.90;;;;;;;;;;5025397;28;20493;-74
2022/04/27 00:25:31;;;;;;;11.45;6.97;;;;;;;;;;5051377;28;20080;-74
2022/04/27 00:27:57;;;;;;;15.35;6.68;;;;;;;;;;5044757;28;20055;-74
2022/04/27 00:30:23;;;;;;;11.32;6.50;;;;;;;;;;5051815;28;20407;-74
2022/04/27 00:32:49;;;;;;;13.10;6.90;;;;;;;;;;5050881;28;20087;-74
2022/04/27 00:35:15;;;;;;;10.43;6.55;;;;;;;;;;5051200;28;20067;-74
2022/04/27 00:37:41;;;;;;;11.45;6.25;;;;;;;;;;5028976;28;20037;-73
2022/04/27 00:40:07;;;;;;;8.85;5.68;;;;;;;;;;5051746;28;20032;-74
2022/04/27 00:42:33;;;;;;;9.98;5.10;;;;;;;;;;5031476;28;20082;-73
2022/04/27 00:44:59;;;;;;;8.48;5.32;;;;;;;;;;5032232;28;20071;-74
2022/04/27 00:47:26;;;;;;;9.70;5.50;;;;;;;;;;5031435;28;20029;-74
2022/04/27 00:49:53;;;;;;;7.88;4.38;;;;;;;;;;5050134;28;20044;-74
2022/04/27 00:52:20;;;;;;;11.63;5.05;;;;;;;;;;5051204;28;20033;-74
2022/04/27 00:54:51;;;;;;;8.35;5.25;;;;;;;;;;5051192;28;20029;-73
2022/04/27 00:57:17;;;;;;;7.95;4.25;;;;;;;;;;5051444;28;20033;-73
2022/04/27 00:59:43;;;;;;;9.50;5.10;;;;;;;;;;5051121;28;20082;-74
2022/04/27 01:02:09;;;;;;;7.45;4.90;;;;;;;;;;5050390;28;20033;-74
2022/04/27 01:04:37;;;;;;;10.85;6.05;;;;;;;;;;5053316;28;20029;-74
2022/04/27 01:07:04;;;;;;;8.77;5.47;;;;;;;;;;5033299;28;20128;-74
2022/04/27 01:09:31;;;;;;;9.18;5.25;;;;;;;;;;5049253;28;20037;-73
2022/04/27 01:11:57;;;;;;;8.52;5.40;;;;;;;;;;5051069;28;20025;-74
2022/04/27 01:14:23;;;;;;;14.75;5.78;;;;;;;;;;5050086;28;20064;-74
2022/04/27 01:16:52;;;;;;;12.45;6.60;;;;;;;;;;5050825;28;20040;-74
2022/04/27 01:19:19;;;;;;;8.90;5.60;;;;;;;;;;5050542;28;20051;-74
2022/04/27 01:21:45;;;;;;;10.82;5.45;;;;;;;;;;5050785;28;20037;-73
2022/04/27 01:24:11;;;;;;;12.02;6.00;;;;;;;;;;5049755;28;20397;-74
2022/04/27 01:26:37;;;;;;;11.85;6.45;;;;;;;;;;5050639;28;20155;-74
2022/04/27 01:29:04;;;;;;;8.95;5.75;;;;;;;;;;5049683;28;20037;-73
2022/04/27 01:31:30;;;;;;;9.60;5.55;;;;;;;;;;5050384;28;20108;-73
2022/04/27 01:33:56;;;;;;;13.82;6.63;;;;;;;;;;5042910;28;20117;-74
2022/04/27 01:36:23;;;;;;;9.93;5.85;;;;;;;;;;5049942;28;20466;-74
2022/04/27 01:38:49;;;;;;;10.40;5.18;;;;;;;;;;5059451;28;20044;-73
2022/04/27 01:41:16;;;;;;;11.75;5.45;;;;;;;;;;5046709;28;20032;-74
2022/04/27 01:43:42;;;;;;;7.88;4.55;;;;;;;;;;5041659;28;20038;-73
2022/04/27 01:46:09;;;;;;;10.13;5.20;;;;;;;;;;5050328;28;20128;-73
2022/04/27 01:48:35;;;;;;;10.38;4.40;;;;;;;;;;5049665;28;20671;-73
2022/04/27 01:51:01;;;;;;;8.50;4.88;;;;;;;;;;5050650;28;20406;-74
2022/04/27 01:56:12;;;;;;;8.85;5.28;;;;;;;;;;5050017;28;20036;-74
2022/04/27 01:58:38;;;;;;;8.90;5.10;;;;;;;;;;5049302;28;20044;-74
2022/04/27 02:01:04;;;;;;;10.32;5.10;;;;;;;;;;5031926;28;20029;-73
2022/04/27 02:03:31;;;;;;;11.32;5.70;;;;;;;;;;5049333;28;20042;-74
2022/04/27 02:05:57;;;;;;;9.98;5.18;;;;;;;;;;5049954;28;20060;-73
2022/04/27 02:08:23;;;;;;;10.40;6.03;;;;;;;;;;5049281;28;20067;-74
2022/04/27 02:10:49;;;;;;;9.48;5.82;;;;;;;;;;5049312;28;20033;-73
2022/04/27 02:13:15;;;;;;;8.95;4.65;;;;;;;;;;5049094;28;20532;-74
2022/04/27 02:15:41;;;;;;;8.65;5.40;;;;;;;;;;5028921;28;20041;-74
2022/04/27 02:18:08;;;;;;;9.55;5.88;;;;;;;;;;5049832;28;20108;-74
2022/04/27 02:20:34;;;;;;;12.93;5.82;;;;;;;;;;5048510;28;20117;-73
2022/04/27 02:23:00;;;;;;;15.45;5.97;;;;;;;;;;5049729;28;20134;-73
2022/04/27 02:25:26;;;;;;;8.57;5.07;;;;;;;;;;5047166;28;20056;-73
2022/04/27 02:27:52;;;;;;;12.77;6.75;;;;;;;;;;5049701;28;20104;-74
2022/04/27 02:30:19;;;;;;;12.25;6.15;;;;;;;;;;5048318;28;20021;-74
2022/04/27 02:32:46;;;;;;;10.30;5.75;;;;;;;;;;5049038;28;20037;-74
2022/04/27 02:35:12;;;;;;;11.88;5.60;;;;;;;;;;5049029;28;20024;-74
2022/04/27 02:37:39;;;;;;;8.75;5.28;;;;;;;;;;5044744;28;20032;-74
2022/04/27 02:40:05;;;;;;;9.73;5.57;;;;;;;;;;5029479;28;20033;-74
2022/04/27 02:42:31;;;;;;;9.90;5.10;;;;;;;;;;5041557;28;20060;-73
2022/04/27 02:44:58;;;;;;;9.30;5.53;;;;;;;;;;5049662;28;20124;-73
2022/04/27 02:47:24;;;;;;;10.40;5.90;;;;;;;;;;5048662;28;20047;-73
2022/04/27 02:52:35;;;;;;;12.10;5.05;;;;;;;;;;5049499;28;20068;-74
2022/04/27 02:55:01;;;;;;;10.80;4.55;;;;;;;;;;5059361;28;20512;-73
2022/04/27 02:57:27;;;;;;;12.75;6.03;;;;;;;;;;5048967;28;20040;-73
2022/04/27 02:59:53;;;;;;;12.65;5.38;;;;;;;;;;5048446;28;20466;-74
2022/04/27 03:02:19;;;;;;;10.75;5.32;;;;;;;;;;5047686;28;20037;-74
2022/04/27 03:04:45;;;;;;;11.68;5.45;;;;;;;;;;5035474;28;20386;-73
2022/04/27 03:07:11;;;;;;;9.80;4.97;;;;;;;;;;5021962;28;20037;-73
2022/04/27 03:09:37;;;;;;;11.35;5.95;;;;;;;;;;5046593;28;20048;-73
2022/04/27 03:12:04;;;;;;;12.77;4.78;;;;;;;;;;5047686;28;20032;-73
2022/04/27 03:14:30;;;;;;;11.30;5.13;;;;;;;;;;5050085;28;20037;-73
2022/04/27 03:16:57;;;;;;;9.73;5.35;;;;;;;;;;5048509;28;20037;-74
2022/04/27 03:19:23;;;;;;;14.38;6.03;;;;;;;;;;5048646;28;20036;-73
2022/04/27 03:21:50;;;;;;;15.10;6.13;;;;;;;;;;5015508;28;20053;-73
2022/04/27 03:24:16;;;;;;;12.32;5.50;;;;;;;;;;5041602;28;20048;-73
2022/04/27 03:26:42;;;;;;;11.75;5.70;;;;;;;;;;5046492;28;20044;-73
2022/04/27 03:29:08;;;;;;;12.05;5.50;;;;;;;;;;5048302;28;20037;-73
2022/04/27 03:31:34;;;;;;;11.20;5.93;;;;;;;;;;5048307;28;20666;-73
2022/04/27 03:34:00;;;;;;;12.70;5.53;;;;;;;;;;5040034;28;20041;-73
2022/04/27 03:36:27;;;;;;;11.13;5.82;;;;;;;;;;5048403;28;20517;-74
2022/04/27 03:38:53;;;;;;;11.45;7.25;;;;;;;;;;5047973;28;20044;-73
2022/04/27 03:41:22;;;;;;;16.42;7.72;;;;;;;;;;5030416;28;20032;-73
2022/04/27 03:43:49;;;;;;;13.98;8.00;;;;;;;;;;5048336;28;20060;-73
2022/04/27 03:46:15;;;;;;;16.30;7.95;;;;;;;;;;5047834;28;20033;-74
2022/04/27 03:48:41;;;;;;;16.02;7.53;;;;;;;;;;5045723;28;20033;-73
2022/04/27 03:51:08;;;;;;;12.88;8.43;;;;;;;;;;5048209;28;20029;-73
2022/04/27 03:53:34;;;;;;;18.85;9.70;;;;;;;;;;5047658;28;20116;-73
2022/04/27 03:56:00;;;;;;;15.40;9.48;;;;;;;;;;5048668;28;20043;-73
2022/04/27 03:58:26;;;;;;;13.45;8.82;;;;;;;;;;5049832;28;20029;-73
2022/04/27 04:00:52;;;;;;;12.75;8.23;;;;;;;;;;5048023;28;20151;-73
2022/04/27 04:03:18;;;;;;;12.98;8.63;;;;;;;;;;5051243;28;20442;-73
2022/04/27 04:05:45;;;;;;;13.95;9.00;;;;;;;;;;5056695;28;20033;-73
2022/04/27 04:08:11;;;;;;;12.63;8.07;;;;;;;;;;5047086;28;20044;-73
2022/04/27 04:10:37;;;;;;;11.48;8.15;;;;;;;;;;5044449;28;20032;-73
2022/04/27 04:13:03;;;;;;;11.88;7.88;;;;;;;;;;5048303;28;20032;-73
2022/04/27 04:15:30;;;;;;;15.13;8.63;;;;;;;;;;5046936;28;20043;-74
2022/04/27 04:17:56;;;;;;;12.80;7.75;;;;;;;;;;5048209;28;20037;-74
2022/04/27 04:20:22;;;;;;;11.30;7.38;;;;;;;;;;5047430;28;20033;-73
2022/04/27 04:22:49;;;;;;;14.60;7.22;;;;;;;;;;5048417;28;20029;-74
2022/04/27 04:30:45;;;;;;;11.90;7.10;;;;;;;;;;5048231;28;20433;-74
2022/04/27 04:33:11;;;;;;;14.52;7.75;;;;;;;;;;5049838;28;20036;-73
2022/04/27 04:35:37;;;;;;;13.45;7.65;;;;;;;;;;5053059;28;20032;-74
2022/04/27 04:38:04;;;;;;;16.73;7.40;;;;;;;;;;5049920;28;20037;-73
2022/04/27 04:40:31;;;;;;;11.45;8.38;;;;;;;;;;5051623;28;20112;-73
2022/04/27 04:42:57;;;;;;;12.65;8.15;;;;;;;;;;5051069;28;20779;-73
2022/04/27 04:45:23;;;;;;;13.90;7.55;;;;;;;;;;5051171;28;20429;-73
2022/04/27 04:47:49;;;;;;;13.27;8.02;;;;;;;;;;5046291;28;20041;-73
2022/04/27 04:50:16;;;;;;;12.77;8.00;;;;;;;;;;5051355;28;20596;-73
2022/04/27 04:52:42;;;;;;;17.52;11.05;;;;;;;;;;5049970;28;20025;-73
2022/04/27 04:55:08;;;;;;;16.33;10.23;;;;;;;;;;5051430;28;20386;-74
2022/04/27 04:57:34;;;;;;;20.38;10.23;;;;;;;;;;5038806;28;20112;-73
2022/04/27 05:00:00;;;;;;;21.77;10.77;;;;;;;;;;5051757;28;20040;-73
2022/04/27 05:02:27;;;;;;;17.83;10.25;;;;;;;;;;5049568;28;20115;-73
2022/04/27 05:04:53;;;;;;;19.55;12.23;;;;;;;;;;5051465;28;20064;-73
2022/04/27 05:07:19;;;;;;;13.45;9.90;;;;;;;;;;5049748;28;20401;-73
2022/04/27 05:09:46;;;;;;;16.27;10.52;;;;;;;;;;5050884;28;20417;-73
2022/04/27 05:12:12;;;;;;;16.20;9.13;;;;;;;;;;5050781;28;20483;-73
2022/04/27 05:14:38;;;;;;;20.30;8.40;;;;;;;;;;5032045;28;20052;-73
2022/04/27 05:17:04;;;;;;;14.15;7.93;;;;;;;;;;5045629;28;20033;-73
2022/04/27 05:19:30;;;;;;;19.92;7.57;;;;;;;;;;5049497;28;20037;-73
2022/04/27 05:21:56;;;;;;;14.60;7.65;;;;;;;;;;5048764;28;20112;-73
2022/04/27 05:24:23;;;;;;;14.88;6.85;;;;;;;;;;5050104;28;20136;-73
2022/04/27 05:26:49;;;;;;;13.57;6.43;;;;;;;;;;5048399;28;20060;-74
2022/04/27 05:32:03;;;;;;;17.40;8.07;;;;;;;;;;5053277;28;20083;-73
2022/04/27 05:34:30;;;;;;;14.98;7.20;;;;;;;;;;5051424;28;20462;-75
2022/04/27 05:36:59;;;;;;;14.75;6.97;;;;;;;;;;5048146;28;20036;-76
2022/04/27 05:39:25;;;;;;;17.95;7.15;;;;;;;;;;5051391;28;20119;-76
2022/04/27 05:41:51;;;;;;;16.95;8.00;;;;;;;;;;5050889;28;20040;-76
2022/04/27 05:44:22;;;;;;;12.18;7.85;;;;;;;;;;5050594;28;20056;-76
2022/04/27 05:46:55;;;;;;;21.15;8.73;;;;;;;;;;5050978;28;20055;-77
2022/04/27 05:49:21;;;;;;;14.63;9.00;;;;;;;;;;5044143;28;20037;-76
2022/04/27 05:51:47;;;;;;;18.25;8.13;;;;;;;;;;5040230;28;20025;-76
2022/04/27 05:54:14;;;;;;;18.02;9.23;;;;;;;;;;5043173;28;20079;-76
2022/04/27 05:56:41;;;;;;;13.80;8.50;;;;;;;;;;5050659;28;20100;-76
2022/04/27 05:59:09;;;;;;;14.93;8.80;;;;;;;;;;5050168;28;20040;-76
2022/04/27 06:01:36;;;;;;;15.27;9.80;;;;;;;;;;5050504;28;20029;-76
2022/04/27 06:04:02;;;;;;;15.63;11.15;;;;;;;;;;5042229;28;20041;-76
2022/04/27 06:06:28;;;;;;;16.92;11.90;;;;;;;;;;5039605;28;20032;-76
2022/04/27 06:08:54;;;;;;;19.45;11.40;;;;;;;;;;5045340;28;20040;-76
2022/04/27 06:11:20;;;;;;;15.20;11.32;;;;;;;;;;5046975;28;20466;-76
2022/04/27 06:13:47;;;;;;;14.65;8.95;;;;;;;;;;5050308;28;20047;-76
2022/04/27 06:16:13;;;;;;;18.10;9.27;;;;;;;;;;5049137;28;20036;-76
2022/04/27 06:18:40;;;;;;;14.95;9.10;;;;;;;;;;5050380;28;20044;-76
2022/04/27 06:21:07;;;;;;;11.20;6.55;;;;;;;;;;5042714;28;20030;-76
2022/04/27 06:23:33;;;;;;;11.35;6.53;;;;;;;;;;5046322;28;20045;-77
2022/04/27 06:25:59;;;;;;;10.25;5.38;;;;;;;;;;5047221;28;20504;-76
2022/04/27 06:28:26;;;;;;;6.72;3.95;;;;;;;;;;5055636;28;20033;-76
2022/04/27 06:30:52;;;;;;;6.13;3.70;;;;;;;;;;5050937;28;20044;-76
2022/04/27 06:33:19;;;;;;;5.97;3.58;;;;;;;;;;5050908;28;20075;-76
2022/04/27 06:35:46;;;;;;;5.53;3.67;;;;;;;;;;5051502;28;20026;-77
2022/04/27 06:38:12;;;;;;;10.30;5.97;;;;;;;;;;5048804;28;20036;-76
2022/04/27 06:40:38;;;;;;;11.15;6.07;;;;;;;;;;5048629;28;20438;-76
2022/04/27 06:43:04;;;;;;;9.98;6.03;;;;;;;;;;5057892;28;20044;-76
2022/04/27 06:45:31;;;;;;;9.40;6.10;;;;;;;;;;5049114;28;20509;-76
2022/04/27 06:47:57;;;;;;;9.95;5.68;;;;;;;;;;5057254;28;20033;-76
2022/04/27 06:50:25;;;;;;;14.25;6.40;;;;;;;;;;5049852;28;20083;-76
2022/04/27 06:52:53;;;;;;;11.48;5.20;;;;;;;;;;5039480;28;20071;-76
2022/04/27 06:55:19;;;;;;;7.78;5.03;;;;;;;;;;5055121;28;20017;-76
2022/04/27 06:57:45;;;;;;;13.27;6.30;;;;;;;;;;5046578;28;20375;-76
2022/04/27 07:00:14;;;;;;;10.60;5.90;;;;;;;;;;5049327;28;20367;-76
2022/04/27 07:02:41;;;;;;;8.52;5.30;;;;;;;;;;5036175;28;20808;-75
2022/04/27 07:05:19;;;;;;;10.05;5.85;;;;;;;;;;5059221;28;20036;-75
2022/04/27 07:07:47;;;;;;;11.38;7.28;;;;;;;;;;5030688;28;20040;-76
2022/04/27 07:10:15;;;;;;;10.10;5.38;;;;;;;;;;5031748;28;20026;-76
2022/04/27 07:12:42;;;;;;;9.40;5.60;;;;;;;;;;5028912;28;20029;-76
2022/04/27 07:15:09;;;;;;;8.95;4.78;;;;;;;;;;5049244;28;20056;-76
2022/04/27 07:17:35;;;;;;;9.73;3.85;;;;;;;;;;5048658;28;20108;-76
2022/04/27 07:20:02;;;;;;;9.38;4.00;;;;;;;;;;5049361;28;20081;-76
2022/04/27 07:22:28;;;;;;;7.90;3.72;;;;;;;;;;5048875;28;20431;-76
2022/04/27 07:24:55;;;;;;;6.45;4.10;;;;;;;;;;5049575;28;20127;-76
2022/04/27 07:27:22;;;;;;;7.78;4.63;;;;;;;;;;5046463;28;20478;-76
2022/04/27 07:29:51;;;;;;;8.95;4.65;;;;;;;;;;5029875;28;20126;-76
2022/04/27 07:32:18;;;;;;;9.98;4.78;;;;;;;;;;5046865;28;20037;-76
2022/04/27 07:34:44;;;;;;;10.27;5.25;;;;;;;;;;5049974;28;20033;-76
2022/04/27 07:37:10;;;;;;;10.57;4.10;;;;;;;;;;5049058;28;20053;-76
2022/04/27 07:39:37;;;;;;;9.85;5.03;;;;;;;;;;5048847;28;20386;-76
2022/04/27 07:42:04;;;;;;;8.55;4.13;;;;;;;;;;5028933;28;20037;-76
2022/04/27 07:44:30;;;;;;;7.82;5.00;;;;;;;;;;5048737;28;20460;-76
2022/04/27 07:46:56;;;;;;;9.50;5.90;;;;;;;;;;5048882;28;20132;-76
2022/04/27 07:49:22;;;;;;;7.53;3.88;;;;;;;;;;5048442;28;20040;-76
2022/04/27 07:51:49;;;;;;;7.18;4.13;;;;;;;;;;5049007;28;20552;-76
2022/04/27 07:54:15;;;;;;;11.38;5.45;;;;;;;;;;5047574;28;20045;-76
2022/04/27 07:56:41;;;;;;;9.73;5.38;;;;;;;;;;5049200;28;20036;-76
2022/04/27 07:59:07;;;;;;;11.75;4.93;;;;;;;;;;5048871;28;20429;-76
2022/04/27 08:01:34;;;;;;;12.38;5.13;;;;;;;;;;5048532;28;20032;-76
2022/04/27 08:04:00;;;;;;;10.10;4.82;;;;;;;;;;5048814;28;20128;-75
2022/04/27 08:06:26;;;;;;;9.55;5.18;;;;;;;;;;5048467;28;20461;-76
2022/04/27 08:08:52;;;;;;;7.43;4.22;;;;;;;;;;5054733;28;20064;-76
2022/04/27 08:11:18;;;;;;;6.57;4.10;;;;;;;;;;5047063;28;20108;-76
2022/04/27 08:13:44;;;;;;;10.50;4.28;;;;;;;;;;5052425;28;20454;-76
2022/04/27 08:16:11;;;;;;;8.32;4.35;;;;;;;;;;5053178;28;20021;-76
2022/04/27 08:18:38;;;;;;;10.63;4.70;;;;;;;;;;5052799;28;20156;-76
2022/04/27 08:21:18;;;;;;;9.35;4.90;;;;;;;;;;5052002;28;20074;-76
2022/04/27 08:23:45;;;;;;;11.60;4.65;;;;;;;;;;5047855;28;20486;-76
2022/04/27 08:26:11;;;;;;;9.18;3.78;;;;;;;;;;5051207;28;20037;-76
2022/04/27 08:28:38;;;;;;;9.57;3.60;;;;;;;;;;5057129;28;20044;-76
2022/04/27 08:31:04;;;;;;;10.65;3.65;;;;;;;;;;5055236;28;20039;-76
2022/04/27 08:33:30;;;;;;;7.32;3.75;;;;;;;;;;5052808;28;20784;-76
2022/04/27 08:36:00;;;;;;;7.45;4.05;;;;;;;;;;5058820;28;20115;-76
2022/04/27 08:38:26;;;;;;;7.75;3.42;;;;;;;;;;5062376;28;20033;-76
2022/04/27 08:40:52;;;;;;;8.52;4.13;;;;;;;;;;5061612;28;20040;-76
2022/04/27 08:43:19;;;;;;;9.63;3.95;;;;;;;;;;5051767;28;20148;-76
2022/04/27 08:45:45;;;;;;;9.05;3.75;;;;;;;;;;5059815;28;20036;-76
2022/04/27 08:48:13;;;;;;;6.32;3.55;;;;;;;;;;5051857;28;20037;-77
2022/04/27 08:50:39;;;;;;;8.30;4.60;;;;;;;;;;5049881;28;20067;-76
2022/04/27 08:53:06;;;;;;;10.88;4.70;;;;;;;;;;5051187;28;20036;-76
2022/04/27 08:55:33;;;;;;;9.52;3.92;;;;;;;;;;5056317;28;20035;-76
2022/04/27 08:58:09;;;;;;;7.63;3.85;;;;;;;;;;5051537;28;20440;-76
2022/04/27 09:00:35;;;;;;;6.47;3.50;;;;;;;;;;5052078;28;20028;-76
2022/04/27 09:03:21;;;;;;;9.50;3.60;;;;;;;;;;5051329;28;20037;-76
2022/04/27 09:05:50;;;;;;;6.97;3.17;;;;;;;;;;5032166;28;20029;-75
2022/04/27 09:08:17;;;;;;;10.57;3.47;;;;;;;;;;5040340;28;20083;-76
2022/04/27 09:10:43;;;;;;;5.55;2.95;;;;;;;;;;5052831;28;20415;-76
2022/04/27 09:13:09;;;;;;;5.93;3.42;;;;;;;;;;5050997;28;20036;-76
2022/04/27 09:15:35;;;;;;;8.10;3.35;;;;;;;;;;5040218;28;20675;-76
2022/04/27 09:20:47;;;;;;;7.00;2.72;;;;;;;;;;5044623;28;20032;-76
2022/04/27 09:23:40;;;;;;;6.15;2.50;;;;;;;;;;5050708;28;20035;-76
2022/04/27 09:26:05;;;;;;;;;;;;;;;;;;5054116;28;20041;-76
2022/04/27 09:28:32;;;;;;;6.57;2.67;;;;;;;;;;5051450;28;19916;-76
2022/04/27 09:30:59;;;;;;;6.45;3.40;;;;;;;;;;5057490;28;20044;-76
2022/04/27 09:33:34;;;;;;;5.57;2.78;;;;;;;;;;5052239;28;20030;-76
2022/04/27 09:36:01;;;;;;;5.78;2.92;;;;;;;;;;5043742;28;20048;-76
2022/04/27 09:38:38;;;;;;;6.93;3.40;;;;;;;;;;5051339;28;20360;-76
2022/04/27 09:41:04;;;;;;;6.03;2.60;;;;;;;;;;5056823;28;20073;-76
2022/04/27 09:43:44;;;;;;;9.57;3.55;;;;;;;;;;5057423;28;20067;-76
2022/04/27 09:46:17;;;;;;;6.90;3.35;;;;;;;;;;5061039;28;20120;-76
2022/04/27 09:48:46;;;;;;;5.85;2.67;;;;;;;;;;5050675;28;20474;-76
2022/04/27 09:51:15;;;;;;;8.65;2.90;;;;;;;;;;5051011;28;20036;-76
2022/04/27 09:53:42;;;;;;;6.93;2.58;;;;;;;;;;5048481;28;20413;-76
2022/04/27 09:56:12;;;;;;;5.85;2.80;;;;;;;;;;5050812;28;20055;-76
2022/04/27 09:58:47;;;;;;;7.50;2.83;;;;;;;;;;5043387;28;20044;-76
2022/04/27 10:01:16;;;;;;;8.18;3.15;;;;;;;;;;5050616;28;20025;-76
2022/04/27 10:03:47;;;;;;;5.10;2.75;;;;;;;;;;5030393;28;20064;-77
2022/04/27 10:06:15;;;;;;;7.25;3.33;;;;;;;;;;5047673;28;20089;-76
2022/04/27 10:08:42;;;;;;;6.00;2.97;;;;;;;;;;5047759;28;20033;-76
2022/04/27 10:11:11;;;;;;;5.93;3.28;;;;;;;;;;5047323;28;20029;-76
2022/04/27 10:13:38;;;;;;;7.07;3.28;;;;;;;;;;5045841;28;20029;-76
2022/04/27 10:16:04;;;;;;;6.35;3.05;;;;;;;;;;5046511;28;20028;-76
2022/04/27 10:18:31;;;;;;;6.75;3.05;;;;;;;;;;5049951;28;20045;-76
2022/04/27 10:20:57;;;;;;;7.07;3.50;;;;;;;;;;5055177;28;20029;-76
2022/04/27 10:23:33;;;;;;;8.70;3.53;;;;;;;;;;5049192;28;20098;-76
2022/04/27 10:26:14;;;;;;;9.35;3.15;;;;;;;;;;5050162;28;20033;-76
2022/04/27 10:28:48;;;;;;;5.33;2.80;;;;;;;;;;5051416;28;20110;-76
2022/04/27 10:31:34;;;;;;;5.32;2.92;;;;;;;;;;5050659;28;20255;-76
2022/04/27 10:34:11;;;;;;;7.22;3.55;;;;;;;;;;5050443;28;20108;-76
2022/04/27 10:36:38;;;;;;;7.15;3.33;;;;;;;;;;5054210;28;20041;-76
2022/04/27 10:39:14;;;;;;;5.15;2.80;;;;;;;;;;5046844;28;20029;-76
2022/04/27 10:41:41;;;;;;;9.63;3.50;;;;;;;;;;5047847;28;20154;-76
2022/04/27 10:44:07;;;;;;;8.77;3.13;;;;;;;;;;5050394;28;20051;-76
2022/04/27 10:46:38;;;;;;;5.30;2.78;;;;;;;;;;5049515;28;20032;-76
2022/04/27 10:49:23;;;;;;;6.03;2.80;;;;;;;;;;5046767;28;20064;-76
2022/04/27 10:51:59;;;;;;;4.90;2.40;;;;;;;;;;5047719;28;20021;-76
2022/04/27 10:54:33;;;;;;;7.03;3.83;;;;;;;;;;5049504;28;20037;-76
2022/04/27 10:57:28;;;;;;;7.35;4.13;;;;;;;;;;5057103;28;20150;-75
2022/04/27 11:00:01;;;;;;;10.02;5.20;;;;;;;;;;5027877;28;20085;-76
2022/04/27 11:02:34;;;;;;;9.00;4.55;;;;;;;;;;5049501;28;20136;-76
2022/04/27 11:05:01;;;;;;;10.32;4.35;;;;;;;;;;5049594;28;20045;-76
2022/04/27 11:07:30;;;;;;;7.47;3.72;;;;;;;;;;5053338;28;20801;-76
2022/04/27 11:10:09;;;;;;;10.80;4.85;;;;;;;;;;5057735;28;20115;-76
2022/04/27 11:12:39;;;;;;;13.90;4.15;;;;;;;;;;5048802;28;20028;-76
2022/04/27 11:15:08;;;;;;;9.32;3.90;;;;;;;;;;5053738;28;20029;-76
2022/04/27 11:17:34;;;;;;;12.80;3.70;;;;;;;;;;5049440;28;20462;-76
2022/04/27 11:20:03;;;;;;;14.15;3.90;;;;;;;;;;5048174;28;20032;-76
2022/04/27 11:22:36;;;;;;;9.38;3.88;;;;;;;;;;5035899;28;20035;-76
2022/04/27 11:25:05;;;;;;;8.48;3.60;;;;;;;;;;5056992;28;20140;-76
2022/04/27 11:27:33;;;;;;;10.13;3.38;;;;;;;;;;5053317;28;20036;-76
2022/04/27 11:29:59;;;;;;;10.55;3.50;;;;;;;;;;5060622;28;20033;-76
2022/04/27 11:32:28;;;;;;;6.63;3.55;;;;;;;;;;5048502;28;20028;-76
2022/04/27 11:34:54;;;;;;;9.95;4.22;;;;;;;;;;5047847;28;20419;-77
2022/04/27 11:37:21;;;;;;;8.10;3.55;;;;;;;;;;5029316;28;20434;-76
2022/04/27 11:39:48;;;;;;;6.82;3.00;;;;;;;;;;5038344;28;20037;-76
2022/04/27 11:42:16;;;;;;;9.52;3.78;;;;;;;;;;5047333;28;20044;-76
2022/04/27 11:44:43;;;;;;;6.22;3.30;;;;;;;;;;5049423;28;20038;-76
2022/04/27 11:47:27;;;;;;;7.68;3.05;;;;;;;;;;5044743;28;20120;-76
2022/04/27 11:49:54;;;;;;;7.07;2.65;;;;;;;;;;5037173;28;20360;-76
2022/04/27 11:52:21;;;;;;;7.53;3.25;;;;;;;;;;5037646;28;20033;-76
2022/04/27 11:54:48;;;;;;;10.30;3.33;;;;;;;;;;5053578;28;20120;-76
2022/04/27 11:57:19;;;;;;;6.10;3.08;;;;;;;;;;5065298;28;20039;-76
2022/04/27 11:59:51;;;;;;;7.85;2.83;;;;;;;;;;5067844;28;20036;-76
2022/04/27 12:02:22;;;;;;;12.25;2.70;;;;;;;;;;5051352;28;20778;-75
2022/04/27 12:04:49;;;;;;;4.93;2.15;;;;;;;;;;5047554;28;20036;-76
2022/04/27 12:07:16;;;;;;;9.13;2.65;;;;;;;;;;5032597;28;20040;-76
2022/04/27 12:09:55;;;;;;;6.72;2.28;;;;;;;;;;5051792;28;20055;-76
2022/04/27 12:12:22;;;;;;;7.75;2.72;;;;;;;;;;5052333;28;20036;-76
2022/04/27 12:14:48;;;;;;;6.43;3.40;;;;;;;;;;5053132;28;20589;-76
2022/04/27 12:17:32;;;;;;;8.13;2.95;;;;;;;;;;5055177;28;20028;-76
2022/04/27 12:19:59;;;;;;;9.55;3.25;;;;;;;;;;5052990;28;20051;-76
2022/04/27 12:22:25;;;;;;;6.07;2.38;;;;;;;;;;5043163;28;20689;-76
2022/04/27 12:24:51;;;;;;;5.18;2.13;;;;;;;;;;5046536;28;20057;-76
2022/04/27 12:27:20;;;;;;;12.32;4.30;;;;;;;;;;5047100;28;20087;-76
2022/04/27 12:29:47;;;;;;;7.40;2.72;;;;;;;;;;5052597;28;20029;-76
2022/04/27 12:32:13;;;;;;;4.72;2.38;;;;;;;;;;5047951;28;20029;-77
2022/04/27 12:37:31;;;;;;;8.18;2.75;;;;;;;;;;5050340;28;20122;-76
2022/04/27 12:39:58;;;;;;;10.10;3.15;;;;;;;;;;5052684;28;20044;-76
2022/04/27 12:42:26;;;;;;;5.55;2.95;;;;;;;;;;5054291;28;20107;-76
2022/04/27 12:44:52;;;;;;;8.70;2.78;;;;;;;;;;5072911;28;20036;-76
2022/04/27 12:47:19;;;;;;;5.47;2.58;;;;;;;;;;5051447;28;20474;-76
2022/04/27 12:49:47;;;;;;;14.95;2.78;;;;;;;;;;5043362;28;20041;-76
2022/04/27 12:52:15;;;;;;;6.15;2.47;;;;;;;;;;5053222;28;20884;-76
2022/04/27 12:54:42;;;;;;;5.28;2.10;;;;;;;;;;5050415;28;20090;-76
2022/04/27 12:57:08;;;;;;;8.63;2.45;;;;;;;;;;5051868;28;20036;-76
2022/04/27 12:59:34;;;;;;;6.15;2.65;;;;;;;;;;5050910;28;20036;-76
2022/04/27 13:02:04;;;;;;;9.52;2.40;;;;;;;;;;5052082;28;20037;-77
2022/04/27 13:04:31;;;;;;;5.57;2.65;;;;;;;;;;5022113;28;20044;-76
2022/04/27 13:06:58;;;;;;;5.80;2.10;;;;;;;;;;5043740;28;20025;-76
2022/04/27 13:12:09;;;;;;;4.80;2.47;;;;;;;;;;5050152;28;20044;-76
2022/04/27 13:14:35;;;;;;;5.88;2.30;;;;;;;;;;5051731;28;20070;-76
2022/04/27 13:17:01;;;;;;;6.00;2.30;;;;;;;;;;5051797;28;20037;-76
2022/04/27 13:19:28;;;;;;;6.93;2.25;;;;;;;;;;5057379;28;20029;-76
2022/04/27 13:21:54;;;;;;;6.10;2.25;;;;;;;;;;5054184;28;20482;-76
2022/04/27 13:24:20;;;;;;;5.63;2.25;;;;;;;;;;5050733;28;20080;-76
2022/04/27 13:26:46;;;;;;;6.85;2.05;;;;;;;;;;5050286;28;20163;-76
2022/04/27 13:29:12;;;;;;;8.82;2.30;;;;;;;;;;5051656;28;20056;-76
2022/04/27 13:31:39;;;;;;;5.15;2.50;;;;;;;;;;5050890;28;20526;-76
2022/04/27 13:34:05;;;;;;;5.97;2.33;;;;;;;;;;5051544;28;20033;-76
2022/04/27 13:36:31;;;;;;;5.47;2.30;;;;;;;;;;5053979;28;20046;-76
2022/04/27 13:38:57;;;;;;;7.28;2.70;;;;;;;;;;5053017;28;20037;-76
2022/04/27 13:41:23;;;;;;;4.72;2.35;;;;;;;;;;5053667;28;20040;-77
2022/04/27 13:43:51;;;;;;;5.28;2.38;;;;;;;;;;5050974;28;20033;-76
2022/04/27 13:46:18;;;;;;;4.88;2.55;;;;;;;;;;5049953;28;20033;-76
2022/04/27 13:48:45;;;;;;;8.35;2.70;;;;;;;;;;5051394;28;20378;-76
2022/04/27 13:51:16;;;;;;;9.02;2.50;;;;;;;;;;5050140;28;20044;-77
2022/04/27 13:53:42;;;;;;;9.10;2.60;;;;;;;;;;5051317;28;20051;-76
2022/04/27 13:56:08;;;;;;;9.77;2.65;;;;;;;;;;5041293;28;20107;-76
2022/04/27 13:58:35;;;;;;;6.38;2.47;;;;;;;;;;5048165;28;20037;-76
2022/04/27 14:01:01;;;;;;;5.22;2.13;;;;;;;;;;5058411;28;20029;-77
2022/04/27 14:03:28;;;;;;;8.52;2.30;;;;;;;;;;5051106;28;20037;-77
2022/04/27 14:05:54;;;;;;;5.78;1.88;;;;;;;;;;5049950;28;20032;-76
2022/04/27 14:08:20;;;;;;;7.50;2.38;;;;;;;;;;5044566;28;20034;-76
2022/04/27 14:10:46;;;;;;;4.90;2.25;;;;;;;;;;5058025;28;20025;-76
2022/04/27 14:13:16;;;;;;;6.28;2.15;;;;;;;;;;5056100;28;20064;-76
2022/04/27 14:18:09;;;;;;;5.20;1.98;;;;;;;;;;5054754;28;20031;-76
2022/04/27 14:18:32;;;;;;;5.60;1.90;;;;;;;;;;5043715;28;20060;-76
2022/04/27 14:20:58;;;;;;;3.75;2.00;;;;;;;;;;5047144;28;20038;-75
2022/04/27 14:23:25;;;;;;;4.93;2.03;;;;;;;;;;5048537;28;20051;-76
2022/04/27 14:25:52;;;;;;;4.95;2.10;;;;;;;;;;5048059;28;20495;-76
2022/04/27 14:28:19;;;;;;;5.07;2.08;;;;;;;;;;5031511;28;20144;-76
2022/04/27 14:30:47;;;;;;;4.60;2.03;;;;;;;;;;5055790;28;20032;-76
2022/04/27 14:33:14;;;;;;;5.30;1.67;;;;;;;;;;5063772;28;20056;-76
2022/04/27 14:35:41;;;;;;;6.00;1.73;;;;;;;;;;5054492;28;20020;-76
2022/04/27 14:38:08;;;;;;;7.95;2.00;;;;;;;;;;5051189;28;20061;-76
2022/04/27 14:40:34;;;;;;;7.15;2.03;;;;;;;;;;5035521;28;20025;-76
2022/04/27 14:43:01;;;;;;;7.55;1.70;;;;;;;;;;5062673;28;20098;-76
2022/04/27 14:45:28;;;;;;;4.82;1.80;;;;;;;;;;5062384;28;20117;-76
2022/04/27 14:47:55;;;;;;;4.18;1.60;;;;;;;;;;5061273;28;20041;-76
2022/04/27 14:50:22;;;;;;;5.47;1.63;;;;;;;;;;5060777;28;20140;-76
2022/04/27 14:52:48;;;;;;;5.03;1.48;;;;;;;;;;5054254;28;20043;-77
2022/04/27 14:55:14;;;;;;;3.38;1.25;;;;;;;;;;5032721;28;20030;-76
2022/04/27 14:57:40;;;;;;;7.50;2.08;;;;;;;;;;5057183;28;20784;-76
2022/04/27 15:00:08;;;;;;;6.10;1.50;;;;;;;;;;5061411;28;20067;-76
2022/04/27 15:02:35;;;;;;;4.03;1.40;;;;;;;;;;5051266;28;20048;-76